EW4502 Weather Reports


Display with metric or nautical units.
time (UTC)temp
F
wind
direction
speed
MPH
gust
MPH
rain 1hr
in
rain 24hr
in
rain mn
in
humidity
%
barometer
mb
20181117164509 41 360 4.0 11.0 0.06 0.26 0.20 68 1017.4
20181117163011 41 213 3.0 11.0 0.06 0.25 0.19 67 1017.4
20181117160018 41 236 4.0 17.0 0.06 0.22 0.16 68 1017.3
20181117153013 40 273 2.0 4.0 0.06 0.19 0.13 77 1017.4
20181117150013 38 13 0.0 3.0 0.04 0.16 0.10 82 1017.4
20181117143002 38 277 1.0 3.0 0.02 0.13 0.07 83 1017.1
20181117134503 37 149 1.0 4.0 0.01 0.12 0.06 83 1016.9
20181117133004 37 286 2.0 5.0 0.01 0.11 0.05 83 1016.8
20181117130004 36 291 0.0 4.0 0.01 0.11 0.05 84 1016.5
20181117123004 36 239 1.0 4.0 0.01 0.10 0.04 84 1016.1
20181117121604 36 246 1.0 5.0 0.01 0.10 0.04 84 1015.4
20181117120008 36 273 1.0 6.0 0.01 0.10 0.04 83 1015.4
20181117114508 36 286 0.0 5.0 0.01 0.10 0.04 83 1015.1
20181117113003 37 59 1.0 5.0 0.00 0.09 0.03 82 1014.7
20181117111505 36 285 1.0 6.0 0.00 0.09 0.03 82 1014.5
20181117110211 36 75 1.0 6.0 0.00 0.09 0.03 83 1014.4
20181117104742 36 14 2.0 6.0 0.01 0.09 0.03 83 1014.2
20181117101709 36 255 1.0 4.0 0.01 0.09 0.03 83 1013.6
20181117100255 36 301 1.0 4.0 0.01 0.09 0.03 83 1013.5
20181117094630 36 182 2.0 5.0 0.01 0.08 0.02 82 1013.2
20181117093126 36 231 1.0 7.0 0.01 0.08 0.02 82 1012.8
20181117091649 36 95 2.0 6.0 0.01 0.08 0.02 82 1012.6
20181117090118 36 182 1.0 9.0 0.01 0.08 0.02 83 1012.3
20181117084604 36 334 2.0 10.0 0.00 0.07 0.01 83 1012.0
20181117083045 36 284 1.0 4.0 0.00 0.07 0.01 83 1011.5
20181117081553 36 260 1.0 5.0 0.00 0.07 0.01 83 1011.2
20181117080110 36 200 1.0 5.0 0.00 0.07 0.01 83 1011.0
20181117074610 36 287 4.0 9.0 0.00 0.07 0.01 83 1010.5
20181117073048 36 252 3.0 8.0 0.01 0.07 0.01 83 1010.6
20181117071546 36 234 2.0 11.0 0.01 0.07 0.01 83 1010.4
20181117070120 36 279 3.0 10.0 0.01 0.07 0.01 83 1010.2
20181117064535 36 360 3.0 13.0 0.01 0.07 0.01 82 1010.0
20181117063044 36 360 3.0 11.0 0.00 0.06 0.00 83 1010.0
20181117061540 36 360 2.0 10.0 0.00 0.06 0.00 83 1010.0
20181117060044 36 360 3.0 10.0 0.00 0.06 0.00 83 1009.8
20181117054539 35 153 2.0 10.0 0.01 0.06 0.00 84 1009.9
20181117053033 35 360 2.0 8.0 0.01 0.06 0.00 85 1009.8
20181117051518 35 14 5.0 12.0 0.01 0.06 0.00 85 1009.6
20181117050033 35 213 2.0 6.0 0.01 0.06 0.00 86 1009.7
20181117044533 35 179 1.0 9.0 0.00 0.05 0.05 85 1009.3
20181117043041 34 306 2.0 6.0 0.00 0.05 0.05 86 1009.1
20181117041525 35 294 2.0 6.0 0.00 0.05 0.05 86 1008.9
20181117040018 34 351 3.0 10.0 0.00 0.05 0.05 87 1008.7
20181117033002 34 271 1.0 4.0 0.00 0.05 0.05 87 1008.4
20181117030004 34 236 2.0 9.0 0.00 0.05 0.05 87 1007.9
20181117024647 34 360 3.0 8.0 0.00 0.05 0.05 88 1007.6
20181117023111 34 360 1.0 9.0 0.00 0.05 0.05 87 1007.7
20181117021558 34 360 2.0 8.0 0.00 0.05 0.05 88 1007.6
20181117020210 34 360 3.0 10.0 0.00 0.05 0.05 88 1007.2
20181117014625 34 360 3.0 11.0 0.00 0.05 0.05 89 1007.1
20181117013150 33 360 1.0 4.0 0.00 0.05 0.05 90 1006.9
20181117011637 33 360 3.0 11.0 0.01 0.05 0.05 90 1006.7
20181117010204 33 360 1.0 8.0 0.01 0.05 0.05 91 1006.8
20181117004701 32 360 1.0 3.0 0.01 0.05 0.05 92 1006.9
20181117001505 32 360 0.0 3.0 0.00 0.04 0.04 92 1006.5
20181116234505 31 360 0.0 3.0 0.00 0.04 0.04 92 1006.3
20181116231513 31 51 1.0 5.0 0.00 0.04 0.04 93 1005.9
20181116224526 30 350 0.0 2.0 0.00 0.04 0.04 92 1005.5
20181116221504 31 350 0.0 3.0 0.01 0.04 0.04 91 1005.2
20181116214503 31 355 0.0 2.0 0.01 0.04 0.04 91 1004.7
20181116211513 32 294 0.0 2.0 0.01 0.03 0.03 90 1004.6
20181116204503 32 304 1.0 3.0 0.02 0.03 0.03 88 1004.4
20181116201507 33 311 0.0 6.0 0.01 0.02 0.02 86 1004.1
20181116194506 33 242 1.0 4.0 0.01 0.01 0.01 85 1003.4
20181116191502 34 337 1.0 4.0 0.01 0.01 0.01 85 1003.6
20181116184502 33 303 1.0 3.0 0.00 0.00 0.00 86 1002.9
20181116181507 33 321 0.0 4.0 0.00 0.00 0.00 86 1003.0
20181116174503 30 75 2.0 5.0 0.00 0.00 0.00 91 1002.9
20181116171503 29 311 1.0 5.0 0.00 0.00 0.00 92 1003.1